createdAt,value
2023-02-14T00:00:39.760Z,6.10
2023-02-14T00:01:39.770Z,6.15
2023-02-14T00:02:39.831Z,6.12
2023-02-14T00:03:39.795Z,6.09
2023-02-14T00:04:39.832Z,6.15
2023-02-14T00:05:39.815Z,6.19
2023-02-14T00:06:39.826Z,6.15
2023-02-14T00:07:39.838Z,6.15
2023-02-14T00:08:39.853Z,6.12
2023-02-14T00:09:39.863Z,6.17
2023-02-14T00:10:39.873Z,6.07
2023-02-14T00:11:39.884Z,6.16
2023-02-14T00:12:39.907Z,6.09
2023-02-14T00:13:39.925Z,6.16
2023-02-14T00:14:39.919Z,6.10
2023-02-14T00:15:39.933Z,6.16
2023-02-14T00:16:39.942Z,6.19
2023-02-14T00:17:39.959Z,6.15
2023-02-14T00:18:39.968Z,6.19
2023-02-14T00:19:39.978Z,6.13
2023-02-14T00:20:39.988Z,6.16
2023-02-14T00:21:40.005Z,6.17
2023-02-14T00:22:40.015Z,6.19
2023-02-14T00:23:40.027Z,6.07
2023-02-14T00:24:40.034Z,6.12
2023-02-14T00:25:40.053Z,6.15
2023-02-14T00:26:40.073Z,6.13
2023-02-14T00:27:40.069Z,6.16
2023-02-14T00:28:40.080Z,6.07
2023-02-14T00:29:40.091Z,6.06
2023-02-14T00:30:40.136Z,6.15
2023-02-14T00:31:40.184Z,6.06
2023-02-14T00:32:40.144Z,6.07
2023-02-14T00:33:40.142Z,6.17
2023-02-14T00:34:40.156Z,6.19
2023-02-14T00:35:40.162Z,6.10
2023-02-14T00:36:40.183Z,6.07
2023-02-14T00:37:40.184Z,6.12
2023-02-14T00:38:40.197Z,6.12
2023-02-14T00:39:40.207Z,6.07
2023-02-14T00:40:40.221Z,6.06
2023-02-14T00:41:40.265Z,6.05
2023-02-14T00:42:40.243Z,6.15
2023-02-14T00:43:40.257Z,6.07
2023-02-14T00:44:40.263Z,6.16
2023-02-14T00:45:40.328Z,6.13
2023-02-14T00:46:40.287Z,6.10
2023-02-14T00:47:40.312Z,6.12
2023-02-14T00:48:40.310Z,6.05
2023-02-14T00:49:40.334Z,6.13
2023-02-14T00:50:40.339Z,6.15
2023-02-14T00:51:40.347Z,6.10
2023-02-14T00:52:40.362Z,6.15
2023-02-14T00:53:40.375Z,6.09
2023-02-14T00:54:40.384Z,6.19
2023-02-14T00:55:40.396Z,6.10
2023-02-14T00:56:40.411Z,6.19
2023-02-14T00:57:40.413Z,6.07
2023-02-14T00:58:40.431Z,6.10
2023-02-14T00:59:40.444Z,6.10
2023-02-14T01:00:40.487Z,6.19
2023-02-14T01:01:40.462Z,5.99
2023-02-14T01:02:40.526Z,6.07
2023-02-14T01:03:40.491Z,6.05
2023-02-14T01:04:40.523Z,6.05
2023-02-14T01:05:40.508Z,6.01
2023-02-14T01:06:40.534Z,6.07
2023-02-14T01:07:40.530Z,6.01
2023-02-14T01:08:40.542Z,6.09
2023-02-14T01:09:40.553Z,6.07
2023-02-14T01:10:40.568Z,6.09
2023-02-14T01:11:40.577Z,6.05
2023-02-14T01:12:40.589Z,6.07
2023-02-14T01:13:40.608Z,6.06
2023-02-14T01:14:40.615Z,6.12
2023-02-14T01:15:40.624Z,6.05
2023-02-14T01:16:40.707Z,6.01
2023-02-14T01:17:40.650Z,6.07
2023-02-14T01:18:40.658Z,6.02
2023-02-14T01:19:40.671Z,5.99
2023-02-14T01:20:40.682Z,5.99
2023-02-14T01:21:40.699Z,5.98
2023-02-14T01:22:40.706Z,6.05
2023-02-14T01:23:40.721Z,6.10
2023-02-14T01:24:40.728Z,6.05
2023-02-14T01:25:40.739Z,6.02
2023-02-14T01:26:40.755Z,6.07
2023-02-14T01:27:40.762Z,6.06
2023-02-14T01:28:40.777Z,6.05
2023-02-14T01:29:40.785Z,6.02
2023-02-14T01:30:40.802Z,6.06
2023-02-14T01:31:40.951Z,6.07
2023-02-14T01:32:40.826Z,6.02
2023-02-14T01:33:40.835Z,5.94
2023-02-14T01:34:40.849Z,6.07
2023-02-14T01:35:40.857Z,6.06
2023-02-14T01:36:40.879Z,5.98
2023-02-14T01:37:40.880Z,5.97
2023-02-14T01:38:40.893Z,5.97
2023-02-14T01:39:40.913Z,5.92
2023-02-14T01:40:40.921Z,5.98
2023-02-14T01:41:40.952Z,5.95
2023-02-14T01:42:40.947Z,5.92
2023-02-14T01:43:40.954Z,6.01
2023-02-14T01:44:40.962Z,5.95
2023-02-14T01:45:41.014Z,5.91
2023-02-14T01:46:41.000Z,5.88
2023-02-14T01:47:41.007Z,5.98
2023-02-14T01:48:41.024Z,5.92
2023-02-14T01:49:41.043Z,5.87
2023-02-14T01:50:41.036Z,5.99
2023-02-14T01:51:41.048Z,5.99
2023-02-14T01:52:41.058Z,5.99
2023-02-14T01:53:41.073Z,6.06
2023-02-14T01:54:41.081Z,5.87
2023-02-14T01:55:41.093Z,5.94
2023-02-14T01:56:41.103Z,5.99
2023-02-14T01:57:41.116Z,5.91
2023-02-14T01:58:41.135Z,5.97
2023-02-14T01:59:41.140Z,5.98
2023-02-14T02:00:41.150Z,5.99
2023-02-14T02:01:41.194Z,5.95
2023-02-14T02:02:41.197Z,6.02
2023-02-14T02:03:41.187Z,5.94
2023-02-14T02:04:41.200Z,5.94
2023-02-14T02:05:41.212Z,5.92
2023-02-14T02:06:41.220Z,6.01
2023-02-14T02:07:41.234Z,5.98
2023-02-14T02:08:41.244Z,6.01
2023-02-14T02:09:41.259Z,5.97
2023-02-14T02:10:41.267Z,6.05
2023-02-14T02:11:41.287Z,6.05
2023-02-14T02:12:41.289Z,6.07
2023-02-14T02:13:41.309Z,6.05
2023-02-14T02:14:41.314Z,5.98
2023-02-14T02:15:41.325Z,6.01
2023-02-14T02:16:41.415Z,5.98
2023-02-14T02:17:41.348Z,5.99
2023-02-14T02:18:41.359Z,5.95
2023-02-14T02:19:41.371Z,5.94
2023-02-14T02:20:41.382Z,6.01
2023-02-14T02:21:41.394Z,5.99
2023-02-14T02:22:41.407Z,6.02
2023-02-14T02:23:41.418Z,5.99
2023-02-14T02:24:41.429Z,6.05
2023-02-14T02:25:41.441Z,5.95
2023-02-14T02:26:41.459Z,5.98
2023-02-14T02:27:41.464Z,5.98
2023-02-14T02:28:41.479Z,5.91
2023-02-14T02:29:41.492Z,6.07
2023-02-14T02:30:41.620Z,5.92
2023-02-14T02:31:41.672Z,6.05
2023-02-14T02:32:41.527Z,5.94
2023-02-14T02:33:41.533Z,5.95
2023-02-14T02:34:41.552Z,5.90
2023-02-14T02:35:41.569Z,5.88
2023-02-14T02:36:41.569Z,5.81
2023-02-14T02:37:41.581Z,5.80
2023-02-14T02:38:41.597Z,5.91
2023-02-14T02:39:41.604Z,5.91
2023-02-14T02:40:41.617Z,5.90
2023-02-14T02:41:41.635Z,5.88
2023-02-14T02:42:41.640Z,5.92
2023-02-14T02:43:41.655Z,5.87
2023-02-14T02:44:41.662Z,5.92
2023-02-14T02:45:41.707Z,5.91
2023-02-14T02:46:41.685Z,5.99
2023-02-14T02:47:41.699Z,5.92
2023-02-14T02:48:41.708Z,5.92
2023-02-14T02:49:41.742Z,5.90
2023-02-14T02:50:41.730Z,6.02
2023-02-14T02:51:41.745Z,5.90
2023-02-14T02:52:41.760Z,6.01
2023-02-14T02:53:41.771Z,5.92
2023-02-14T02:54:41.778Z,5.88
2023-02-14T02:55:41.790Z,5.87
2023-02-14T02:56:41.808Z,5.90
2023-02-14T02:57:41.813Z,5.94
2023-02-14T02:58:41.832Z,5.87
2023-02-14T02:59:41.844Z,5.94
2023-02-14T03:00:41.851Z,5.92
2023-02-14T03:01:41.893Z,5.92
2023-02-14T03:02:41.871Z,5.90
2023-02-14T03:03:41.890Z,5.95
2023-02-14T03:04:41.973Z,5.94
2023-02-14T03:05:41.906Z,5.90
2023-02-14T03:06:41.917Z,5.94
2023-02-14T03:07:41.939Z,5.88
2023-02-14T03:08:41.944Z,5.97
2023-02-14T03:09:41.951Z,5.99
2023-02-14T03:10:41.964Z,5.97
2023-02-14T03:11:41.976Z,5.91
2023-02-14T03:12:41.985Z,5.84
2023-02-14T03:13:41.998Z,5.94
2023-02-14T03:14:42.025Z,5.88
2023-02-14T03:15:42.075Z,5.92
2023-02-14T03:16:42.034Z,5.95
2023-02-14T03:17:42.043Z,5.88
2023-02-14T03:18:42.072Z,5.98
2023-02-14T03:19:42.081Z,5.94
2023-02-14T03:20:42.076Z,5.92
2023-02-14T03:21:42.106Z,5.92
2023-02-14T03:22:42.117Z,5.92
2023-02-14T03:23:42.114Z,5.88
2023-02-14T03:24:42.126Z,5.98
2023-02-14T03:25:42.137Z,5.98
2023-02-14T03:26:42.149Z,5.91
2023-02-14T03:27:42.160Z,5.90
2023-02-14T03:28:42.176Z,5.95
2023-02-14T03:29:42.192Z,5.95
2023-02-14T03:30:42.396Z,5.92
2023-02-14T03:31:42.336Z,5.90
2023-02-14T03:32:42.229Z,5.91
2023-02-14T03:33:42.239Z,5.91
2023-02-14T03:34:42.243Z,5.92
2023-02-14T03:35:42.256Z,5.90
2023-02-14T03:36:42.266Z,5.97
2023-02-14T03:37:42.275Z,5.91
2023-02-14T03:38:42.290Z,5.90
2023-02-14T03:39:42.300Z,5.88
2023-02-14T03:40:42.311Z,5.88
2023-02-14T03:41:42.338Z,5.98
2023-02-14T03:42:42.335Z,5.90
2023-02-14T03:43:42.352Z,5.92
2023-02-14T03:44:42.356Z,5.88
2023-02-14T03:45:42.368Z,5.94
2023-02-14T03:46:42.413Z,5.90
2023-02-14T03:47:42.392Z,5.84
2023-02-14T03:48:42.403Z,5.98
2023-02-14T03:49:42.418Z,5.90
2023-02-14T03:50:42.426Z,5.91
2023-02-14T03:51:42.444Z,5.98
2023-02-14T03:52:42.450Z,5.92
2023-02-14T03:53:42.462Z,5.99
2023-02-14T03:54:42.476Z,5.90
2023-02-14T03:55:42.487Z,5.92
2023-02-14T03:56:42.506Z,5.92
2023-02-14T03:57:42.508Z,5.94
2023-02-14T03:58:42.519Z,5.91
2023-02-14T03:59:42.530Z,5.92
2023-02-14T04:00:42.541Z,5.90
2023-02-14T04:01:42.637Z,5.91
2023-02-14T04:02:42.568Z,5.99
2023-02-14T04:03:42.676Z,5.90
2023-02-14T04:04:42.588Z,5.91
2023-02-14T04:05:42.600Z,5.98
2023-02-14T04:06:42.621Z,5.97
2023-02-14T04:07:42.623Z,5.91
2023-02-14T04:08:42.643Z,5.88
2023-02-14T04:09:42.647Z,5.92
2023-02-14T04:10:42.667Z,6.05
2023-02-14T04:11:42.670Z,5.97
2023-02-14T04:12:42.680Z,6.02
2023-02-14T04:13:42.697Z,5.84
2023-02-14T04:14:42.709Z,5.88
2023-02-14T04:15:42.752Z,5.79
2023-02-14T04:16:42.728Z,5.87
2023-02-14T04:17:42.741Z,5.80
2023-02-14T04:18:42.770Z,5.73
2023-02-14T04:19:42.763Z,5.72
2023-02-14T04:20:42.773Z,5.77
2023-02-14T04:21:42.785Z,5.80
2023-02-14T04:22:42.804Z,5.76
2023-02-14T04:23:42.830Z,5.81
2023-02-14T04:24:42.836Z,5.83
2023-02-14T04:25:42.839Z,5.81
2023-02-14T04:26:42.852Z,5.81
2023-02-14T04:27:42.863Z,5.87
2023-02-14T04:28:42.870Z,5.87
2023-02-14T04:29:42.893Z,5.88
2023-02-14T04:30:42.896Z,5.94
2023-02-14T04:31:43.031Z,5.84
2023-02-14T04:32:42.923Z,5.88
2023-02-14T04:33:42.921Z,5.94
2023-02-14T04:34:42.940Z,5.81
2023-02-14T04:35:42.952Z,5.77
2023-02-14T04:36:42.958Z,5.83
2023-02-14T04:37:42.970Z,5.84
2023-02-14T04:38:42.980Z,5.84
2023-02-14T04:39:42.997Z,5.83
2023-02-14T04:40:43.004Z,5.76
2023-02-14T04:41:43.017Z,5.84
2023-02-14T04:42:43.029Z,5.84
2023-02-14T04:43:43.037Z,5.81
2023-02-14T04:44:43.054Z,5.81
2023-02-14T04:45:43.063Z,5.90
2023-02-14T04:46:43.169Z,5.90
2023-02-14T04:47:43.098Z,5.90
2023-02-14T04:48:43.095Z,5.90
2023-02-14T04:49:43.116Z,5.87
2023-02-14T04:50:43.116Z,5.92
2023-02-14T04:51:43.127Z,5.91
2023-02-14T04:52:43.151Z,5.90
2023-02-14T04:53:43.160Z,5.91
2023-02-14T04:54:43.168Z,5.92
2023-02-14T04:55:43.179Z,5.87
2023-02-14T04:56:43.189Z,5.94
2023-02-14T04:57:43.203Z,5.90
2023-02-14T04:58:43.215Z,5.88
2023-02-14T04:59:43.222Z,5.88
2023-02-14T05:00:43.269Z,5.92
2023-02-14T05:01:43.286Z,5.92
2023-02-14T05:02:43.255Z,5.90
2023-02-14T05:03:43.269Z,5.87
2023-02-14T05:04:43.280Z,5.80
2023-02-14T05:05:43.296Z,5.88
2023-02-14T05:06:43.319Z,5.79
2023-02-14T05:07:43.313Z,5.84
2023-02-14T05:08:43.323Z,5.80
2023-02-14T05:09:43.336Z,5.84
2023-02-14T05:10:43.359Z,5.87
2023-02-14T05:11:43.359Z,5.73
2023-02-14T05:12:43.372Z,5.76
2023-02-14T05:13:43.380Z,5.77
2023-02-14T05:14:43.393Z,5.77
2023-02-14T05:15:43.410Z,5.77
2023-02-14T05:16:43.492Z,5.77
2023-02-14T05:17:43.432Z,5.73
2023-02-14T05:18:43.440Z,5.70
2023-02-14T05:19:43.453Z,5.73
2023-02-14T05:20:43.461Z,5.76
2023-02-14T05:21:43.480Z,5.72
2023-02-14T05:22:43.484Z,5.73
2023-02-14T05:23:43.494Z,5.77
2023-02-14T05:24:43.508Z,5.69
2023-02-14T05:25:43.521Z,5.64
2023-02-14T05:26:43.529Z,5.70
2023-02-14T05:27:43.543Z,5.70
2023-02-14T05:28:43.551Z,5.76
2023-02-14T05:29:43.582Z,5.70
2023-02-14T05:30:43.682Z,5.73
2023-02-14T05:31:43.672Z,5.70
2023-02-14T05:32:43.595Z,5.76
2023-02-14T05:33:43.610Z,5.76
2023-02-14T05:34:43.621Z,5.77
2023-02-14T05:35:43.631Z,5.72
2023-02-14T05:36:43.644Z,5.77
2023-02-14T05:37:43.654Z,5.73
2023-02-14T05:38:43.667Z,5.74
2023-02-14T05:39:43.678Z,5.80
2023-02-14T05:40:43.691Z,5.76
2023-02-14T05:41:43.709Z,5.77
2023-02-14T05:42:43.709Z,5.73
2023-02-14T05:43:43.726Z,5.76
2023-02-14T05:44:43.737Z,5.72
2023-02-14T05:45:43.783Z,5.70
2023-02-14T05:46:43.756Z,5.74
2023-02-14T05:47:43.770Z,5.56
2023-02-14T05:48:43.782Z,5.64
2023-02-14T05:49:43.792Z,5.64
2023-02-14T05:50:43.804Z,5.64
2023-02-14T05:51:43.825Z,5.62
2023-02-14T05:52:43.825Z,5.65
2023-02-14T05:53:43.841Z,5.67
2023-02-14T05:54:43.856Z,5.70
2023-02-14T05:55:43.870Z,5.73
2023-02-14T05:56:43.896Z,5.77
2023-02-14T05:57:43.887Z,5.77
2023-02-14T05:58:43.907Z,5.67
2023-02-14T05:59:43.908Z,5.67
2023-02-14T06:00:43.929Z,5.70
2023-02-14T06:01:43.969Z,5.64
2023-02-14T06:02:43.949Z,5.70
2023-02-14T06:03:43.954Z,5.61
2023-02-14T06:04:44.001Z,5.58
2023-02-14T06:05:43.977Z,5.61
2023-02-14T06:06:43.990Z,5.55
2023-02-14T06:07:44.000Z,5.64
2023-02-14T06:08:44.016Z,5.69
2023-02-14T06:09:44.021Z,5.69
2023-02-14T06:10:44.035Z,5.64
2023-02-14T06:11:44.055Z,5.61
2023-02-14T06:12:44.059Z,5.65
2023-02-14T06:13:44.074Z,5.61
2023-02-14T06:14:44.080Z,5.62
2023-02-14T06:15:44.090Z,5.59
2023-02-14T06:16:44.140Z,5.64
2023-02-14T06:17:44.119Z,5.72
2023-02-14T06:18:44.128Z,5.72
2023-02-14T06:19:44.141Z,5.73
2023-02-14T06:20:44.150Z,5.70
2023-02-14T06:21:44.166Z,5.74
2023-02-14T06:22:44.175Z,5.80
2023-02-14T06:23:44.182Z,5.74
2023-02-14T06:24:44.206Z,5.64
2023-02-14T06:25:44.209Z,5.70
2023-02-14T06:26:44.218Z,5.74
2023-02-14T06:27:44.232Z,5.67
2023-02-14T06:28:44.240Z,5.70
2023-02-14T06:29:44.252Z,5.62
2023-02-14T06:30:44.418Z,5.64
2023-02-14T06:31:44.338Z,5.64
2023-02-14T06:32:44.285Z,5.64
2023-02-14T06:33:44.296Z,5.67
2023-02-14T06:34:44.311Z,5.61
2023-02-14T06:35:44.320Z,5.65
2023-02-14T06:36:44.338Z,5.64
2023-02-14T06:37:44.342Z,5.64
2023-02-14T06:38:44.367Z,5.64
2023-02-14T06:39:44.366Z,5.59
2023-02-14T06:40:44.378Z,5.58
2023-02-14T06:41:44.388Z,5.65
2023-02-14T06:42:44.411Z,5.58
2023-02-14T06:43:44.411Z,5.59
2023-02-14T06:44:44.421Z,5.64
2023-02-14T06:45:44.553Z,5.70
2023-02-14T06:46:44.449Z,5.54
2023-02-14T06:47:44.457Z,5.59
2023-02-14T06:48:44.471Z,5.56
2023-02-14T06:49:44.479Z,5.64
2023-02-14T06:50:44.493Z,5.69
2023-02-14T06:51:44.502Z,5.67
2023-02-14T06:52:44.561Z,5.69
2023-02-14T06:53:44.530Z,5.62
2023-02-14T06:54:44.548Z,5.70
2023-02-14T06:55:44.547Z,5.67
2023-02-14T06:56:44.559Z,5.70
2023-02-14T06:57:44.571Z,5.73
2023-02-14T06:58:44.590Z,5.76
2023-02-14T06:59:44.610Z,5.81
2023-02-14T07:00:44.608Z,5.74
2023-02-14T07:01:44.656Z,5.79
2023-02-14T07:02:44.691Z,5.77
2023-02-14T07:03:44.659Z,5.72
2023-02-14T07:04:44.650Z,5.77
2023-02-14T07:05:44.660Z,5.84
2023-02-14T07:06:44.676Z,5.87
2023-02-14T07:07:44.685Z,5.79
2023-02-14T07:08:44.706Z,5.83
2023-02-14T07:09:44.718Z,5.81
2023-02-14T07:10:44.727Z,5.77
2023-02-14T07:11:44.729Z,5.79
2023-02-14T07:12:44.740Z,5.83
2023-02-14T07:13:44.753Z,5.87
2023-02-14T07:14:44.779Z,5.87
2023-02-14T07:15:44.810Z,5.81
2023-02-14T07:16:44.785Z,5.94
2023-02-14T07:17:44.797Z,5.90
2023-02-14T07:18:44.812Z,5.87
2023-02-14T07:19:44.820Z,5.97
2023-02-14T07:20:44.837Z,5.99
2023-02-14T07:21:44.844Z,5.88
2023-02-14T07:22:44.858Z,5.95
2023-02-14T07:23:44.868Z,5.99
2023-02-14T07:24:44.882Z,6.07
2023-02-14T07:25:44.891Z,6.02
2023-02-14T07:26:44.903Z,5.99
2023-02-14T07:27:44.920Z,6.01
2023-02-14T07:28:45.216Z,6.05
2023-02-14T07:29:44.937Z,6.09
2023-02-14T07:30:44.995Z,5.95
2023-02-14T07:31:45.066Z,6.09
2023-02-14T07:32:44.972Z,6.05
2023-02-14T07:33:44.988Z,6.06
2023-02-14T07:34:45.004Z,6.02
2023-02-14T07:35:45.026Z,6.07
2023-02-14T07:36:45.021Z,6.01
2023-02-14T07:37:45.029Z,6.09
2023-02-14T07:38:45.046Z,6.05
2023-02-14T07:39:45.056Z,6.15
2023-02-14T07:40:45.071Z,6.09
2023-02-14T07:41:45.081Z,6.10
2023-02-14T07:42:45.089Z,6.19
2023-02-14T07:43:45.105Z,6.13
2023-02-14T07:44:45.114Z,6.19
2023-02-14T07:45:45.134Z,6.22
2023-02-14T07:46:45.135Z,6.17
2023-02-14T07:47:45.152Z,6.15
2023-02-14T07:48:45.173Z,6.22
2023-02-14T07:49:45.172Z,6.29
2023-02-14T07:50:45.195Z,6.15
2023-02-14T07:51:45.206Z,6.29
2023-02-14T07:52:45.211Z,6.25
2023-02-14T07:53:45.226Z,6.31
2023-02-14T07:54:45.235Z,6.34
2023-02-14T07:55:45.246Z,6.36
2023-02-14T07:56:45.256Z,6.43
2023-02-14T07:57:45.273Z,6.41
2023-02-14T07:58:45.293Z,6.44
2023-02-14T07:59:45.295Z,6.54
2023-02-14T08:00:45.304Z,6.49
2023-02-14T08:01:45.401Z,6.59
2023-02-14T08:02:45.331Z,6.60
2023-02-14T08:03:45.341Z,6.56
2023-02-14T08:04:45.379Z,6.67
2023-02-14T08:05:45.386Z,6.67
2023-02-14T08:06:45.382Z,6.74
2023-02-14T08:07:45.393Z,6.68
2023-02-14T08:08:45.416Z,6.72
2023-02-14T08:09:45.417Z,6.82
2023-02-14T08:10:45.429Z,6.78
2023-02-14T08:11:45.441Z,6.90
2023-02-14T08:12:45.455Z,6.82
2023-02-14T08:13:45.463Z,6.85
2023-02-14T08:14:45.478Z,6.95
2023-02-14T08:15:45.538Z,6.89
2023-02-14T08:16:45.511Z,6.89
2023-02-14T08:17:45.519Z,6.93
2023-02-14T08:18:45.527Z,6.96
2023-02-14T08:19:45.540Z,6.97
2023-02-14T08:20:45.553Z,7.00
2023-02-14T08:21:45.562Z,7.10
2023-02-14T08:22:45.579Z,7.10
2023-02-14T08:23:47.493Z,7.08
2023-02-14T08:24:45.602Z,7.11
2023-02-14T08:25:45.612Z,7.10
2023-02-14T08:26:45.625Z,7.21
2023-02-14T08:27:45.639Z,7.08
2023-02-14T08:28:45.652Z,7.23
2023-02-14T08:29:45.665Z,7.22
2023-02-14T08:30:45.682Z,7.11
2023-02-14T08:31:45.836Z,7.21
2023-02-14T08:32:45.792Z,7.28
2023-02-14T08:33:45.725Z,7.19
2023-02-14T08:34:45.730Z,7.28
2023-02-14T08:35:45.741Z,7.23
2023-02-14T08:36:45.759Z,7.25
2023-02-14T08:37:45.766Z,7.28
2023-02-14T08:38:45.784Z,7.40
2023-02-14T08:39:45.791Z,7.40
2023-02-14T08:40:45.805Z,7.37
2023-02-14T08:41:45.826Z,7.39
2023-02-14T08:42:45.831Z,7.46
2023-02-14T08:43:45.844Z,7.48
2023-02-14T08:44:45.862Z,7.39
2023-02-14T08:45:45.871Z,7.43
2023-02-14T08:46:45.939Z,7.51
2023-02-14T08:47:45.905Z,7.53
2023-02-14T08:48:45.910Z,7.55
2023-02-14T08:49:45.927Z,7.51
2023-02-14T08:50:45.965Z,7.64
2023-02-14T08:51:45.961Z,7.62
2023-02-14T08:52:45.984Z,7.59
2023-02-14T08:53:45.995Z,7.67
2023-02-14T08:54:45.990Z,7.62
2023-02-14T08:55:46.011Z,7.64
2023-02-14T08:56:46.047Z,7.67
2023-02-14T08:57:46.053Z,7.66
2023-02-14T08:58:46.056Z,7.70
2023-02-14T08:59:46.063Z,7.77
2023-02-14T09:00:46.126Z,7.77
2023-02-14T09:01:46.123Z,7.78
2023-02-14T09:02:46.095Z,7.69
2023-02-14T09:03:46.182Z,7.74
2023-02-14T09:04:46.128Z,7.69
2023-02-14T09:05:46.164Z,7.80
2023-02-14T09:06:46.162Z,7.84
2023-02-14T09:07:46.164Z,7.88
2023-02-14T09:08:46.211Z,7.83
2023-02-14T09:09:46.393Z,7.84
2023-02-14T09:10:46.203Z,7.90
2023-02-14T09:11:46.218Z,7.83
2023-02-14T09:12:46.232Z,7.85
2023-02-14T09:13:46.246Z,7.91
2023-02-14T09:14:46.301Z,7.91
2023-02-14T09:15:46.273Z,7.88
2023-02-14T09:16:46.360Z,7.96
2023-02-14T09:17:46.368Z,7.96
2023-02-14T09:18:46.346Z,7.99
2023-02-14T09:19:46.378Z,7.99
2023-02-14T09:20:46.348Z,8.03
2023-02-14T09:21:46.417Z,8.03
2023-02-14T09:22:48.432Z,8.01
2023-02-14T09:23:46.392Z,8.08
2023-02-14T09:24:46.395Z,8.06
2023-02-14T09:25:46.409Z,8.06
2023-02-14T09:26:46.421Z,8.08
2023-02-14T09:27:46.435Z,8.09
2023-02-14T09:28:46.462Z,8.11
2023-02-14T09:29:46.466Z,8.20
2023-02-14T09:30:46.475Z,8.26
2023-02-14T09:31:46.566Z,8.27
2023-02-14T09:32:46.512Z,8.31
2023-02-14T09:33:46.521Z,8.26
2023-02-14T09:34:46.534Z,8.27
2023-02-14T09:35:46.547Z,8.31
2023-02-14T09:36:46.560Z,8.32
2023-02-14T09:37:46.574Z,8.41
2023-02-14T09:38:46.594Z,8.41
2023-02-14T09:39:46.613Z,8.39
2023-02-14T09:40:46.623Z,8.36
2023-02-14T09:41:46.633Z,8.44
2023-02-14T09:42:46.642Z,8.35
2023-02-14T09:43:46.661Z,8.44
2023-02-14T09:44:46.682Z,8.41
2023-02-14T09:45:46.762Z,8.36
2023-02-14T09:46:46.716Z,8.46
2023-02-14T09:47:46.715Z,8.52
2023-02-14T09:48:46.781Z,8.52
2023-02-14T09:49:46.890Z,8.46
2023-02-14T09:50:46.759Z,8.52
2023-02-14T09:51:46.770Z,8.54
2023-02-14T09:52:46.785Z,8.52
2023-02-14T09:53:46.800Z,8.46
2023-02-14T09:54:46.814Z,8.53
2023-02-14T09:55:46.827Z,8.56
2023-02-14T09:56:51.315Z,8.49
2023-02-14T09:57:46.854Z,8.56
2023-02-14T09:58:46.877Z,8.53
2023-02-14T09:59:46.889Z,8.50
2023-02-14T10:00:46.958Z,8.54
2023-02-14T10:01:46.976Z,8.52
2023-02-14T10:02:46.944Z,8.44
2023-02-14T10:03:46.940Z,8.59
2023-02-14T10:04:46.954Z,8.53
2023-02-14T10:05:46.970Z,8.54
2023-02-14T10:06:46.997Z,8.53
2023-02-14T10:07:46.999Z,8.54
2023-02-14T10:08:47.014Z,8.54
2023-02-14T10:09:47.027Z,8.60
2023-02-14T10:10:47.041Z,8.56
2023-02-14T10:11:47.055Z,8.59
2023-02-14T10:12:47.067Z,8.61
2023-02-14T10:13:47.082Z,8.52
2023-02-14T10:14:47.095Z,8.63
2023-02-14T10:15:47.112Z,8.59
2023-02-14T10:16:47.157Z,8.66
2023-02-14T10:17:47.142Z,8.69
2023-02-14T10:18:47.159Z,8.68
2023-02-14T10:19:47.168Z,8.72
2023-02-14T10:20:47.181Z,8.72
2023-02-14T10:21:48.004Z,8.75
2023-02-14T10:22:47.216Z,8.74
2023-02-14T10:23:47.232Z,8.78
2023-02-14T10:24:47.240Z,8.82
2023-02-14T10:25:47.268Z,8.75
2023-02-14T10:26:47.272Z,8.86
2023-02-14T10:27:47.301Z,8.75
2023-02-14T10:28:47.298Z,8.84
2023-02-14T10:29:47.323Z,8.89
2023-02-14T10:30:47.453Z,8.86
2023-02-14T10:31:47.422Z,8.89
2023-02-14T10:32:47.356Z,8.92
2023-02-14T10:33:47.377Z,8.87
2023-02-14T10:34:47.386Z,8.89
2023-02-14T10:35:47.402Z,8.84
2023-02-14T10:36:47.415Z,8.87
2023-02-14T10:37:47.431Z,8.89
2023-02-14T10:38:47.453Z,8.90
2023-02-14T10:39:47.461Z,8.90
2023-02-14T10:40:47.472Z,8.95
2023-02-14T10:41:47.488Z,8.95
2023-02-14T10:42:47.521Z,9.00
2023-02-14T10:43:47.519Z,8.97
2023-02-14T10:44:47.530Z,8.96
2023-02-14T10:45:47.562Z,8.96
2023-02-14T10:46:47.560Z,8.95
2023-02-14T10:47:47.578Z,8.90
2023-02-14T10:48:47.605Z,8.92
2023-02-14T10:49:47.605Z,8.74
2023-02-14T10:50:47.623Z,8.86
2023-02-14T10:51:47.636Z,8.87
2023-02-14T10:52:47.652Z,8.75
2023-02-14T10:53:47.664Z,8.81
2023-02-14T10:54:47.680Z,8.81
2023-02-14T10:55:47.695Z,8.77
2023-02-14T10:56:47.709Z,8.89
2023-02-14T10:57:47.725Z,8.92
2023-02-14T10:58:47.742Z,8.74
2023-02-14T10:59:47.758Z,8.78
2023-02-14T11:00:47.771Z,8.74
2023-02-14T11:01:47.786Z,8.81
2023-02-14T11:02:47.797Z,8.79
2023-02-14T11:03:47.908Z,8.74
2023-02-14T11:04:47.834Z,8.72
2023-02-14T11:05:47.844Z,8.75
2023-02-14T11:06:47.855Z,8.75
2023-02-14T11:07:47.870Z,8.72
2023-02-14T11:08:47.890Z,8.78
2023-02-14T11:09:47.901Z,8.75
2023-02-14T11:10:47.915Z,8.75
2023-02-14T11:11:47.928Z,8.74
2023-02-14T11:12:47.945Z,8.71
2023-02-14T11:13:47.956Z,8.74
2023-02-14T11:14:47.972Z,8.82
2023-02-14T11:15:47.986Z,8.86
2023-02-14T11:16:48.017Z,8.84
2023-02-14T11:17:48.015Z,8.89
2023-02-14T11:18:48.031Z,8.79
2023-02-14T11:19:48.043Z,8.77
2023-02-14T11:20:48.059Z,8.78
2023-02-14T11:21:48.072Z,8.74
2023-02-14T11:22:48.085Z,8.79
2023-02-14T11:23:48.097Z,8.86
2023-02-14T11:24:48.111Z,8.86
2023-02-14T11:25:48.128Z,8.84
2023-02-14T11:26:48.146Z,8.77
2023-02-14T11:27:48.161Z,8.92
2023-02-14T11:28:48.171Z,8.86
2023-02-14T11:29:48.307Z,8.89
2023-02-14T11:30:48.253Z,8.84
2023-02-14T11:31:48.305Z,8.82
2023-02-14T11:32:48.232Z,8.96
2023-02-14T11:33:48.244Z,8.99
2023-02-14T11:34:48.263Z,8.92
2023-02-14T11:35:48.275Z,8.96
2023-02-14T11:36:48.287Z,8.93
2023-02-14T11:37:48.303Z,8.93
2023-02-14T11:38:48.321Z,9.00
2023-02-14T11:39:48.333Z,8.93
2023-02-14T11:40:48.350Z,8.93
2023-02-14T11:41:48.381Z,8.97
2023-02-14T11:42:51.674Z,8.87
2023-02-14T11:43:48.387Z,8.87
2023-02-14T11:44:48.404Z,8.87
2023-02-14T11:45:48.479Z,8.89
2023-02-14T11:46:53.382Z,8.82
2023-02-14T11:47:48.449Z,8.95
2023-02-14T11:48:48.464Z,8.95
2023-02-14T11:49:48.477Z,8.89
2023-02-14T11:50:48.492Z,8.95
2023-02-14T11:51:48.505Z,8.95
2023-02-14T11:52:48.533Z,8.92
2023-02-14T11:53:48.557Z,8.97
2023-02-14T11:54:48.566Z,8.99
2023-02-14T11:55:48.565Z,8.99
2023-02-14T11:56:48.585Z,8.99
2023-02-14T11:57:48.597Z,8.92
2023-02-14T11:58:48.624Z,8.95
2023-02-14T11:59:48.626Z,8.97
2023-02-14T12:00:48.638Z,8.93
2023-02-14T12:01:48.650Z,8.96
2023-02-14T12:02:48.689Z,8.95
2023-02-14T12:03:48.699Z,8.92
2023-02-14T12:04:48.697Z,8.95
2023-02-14T12:05:48.747Z,8.86
2023-02-14T12:06:48.736Z,8.84
2023-02-14T12:07:48.745Z,8.90
2023-02-14T12:08:48.755Z,8.86
2023-02-14T12:09:48.773Z,8.90
2023-02-14T12:10:48.787Z,8.95
2023-02-14T12:11:48.799Z,8.95
2023-02-14T12:12:48.812Z,8.82
2023-02-14T12:13:48.828Z,8.89
2023-02-14T12:14:48.852Z,8.92
2023-02-14T12:15:48.898Z,8.86
2023-02-14T12:16:48.871Z,8.86
2023-02-14T12:17:48.886Z,8.89
2023-02-14T12:18:48.915Z,8.93
2023-02-14T12:19:48.928Z,8.90
2023-02-14T12:20:48.931Z,8.87
2023-02-14T12:21:48.954Z,8.90
2023-02-14T12:22:48.967Z,8.86
2023-02-14T12:23:48.974Z,8.86
2023-02-14T12:24:48.992Z,8.86
2023-02-14T12:25:49.005Z,8.90
2023-02-14T12:26:49.018Z,8.96
2023-02-14T12:27:49.034Z,8.82
2023-02-14T12:28:49.048Z,8.86
2023-02-14T12:29:49.081Z,8.96
2023-02-14T12:30:49.159Z,8.95
2023-02-14T12:31:49.169Z,8.95
2023-02-14T12:32:49.101Z,8.95
2023-02-14T12:33:50.508Z,8.92
2023-02-14T12:34:49.130Z,8.87
2023-02-14T12:35:49.148Z,8.92
2023-02-14T12:36:49.157Z,8.90
2023-02-14T12:37:56.024Z,8.78
2023-02-14T12:38:49.192Z,8.79
2023-02-14T12:39:49.203Z,8.84
2023-02-14T12:40:49.217Z,8.78
2023-02-14T12:41:49.230Z,8.78
2023-02-14T12:42:49.246Z,8.77
2023-02-14T12:43:49.259Z,8.81
2023-02-14T12:44:49.296Z,8.87
2023-02-14T12:45:49.290Z,8.79
2023-02-14T12:46:49.316Z,8.72
2023-02-14T12:47:49.320Z,8.77
2023-02-14T12:48:49.336Z,8.74
2023-02-14T12:49:49.346Z,8.77
2023-02-14T12:50:49.362Z,8.77
2023-02-14T12:51:49.378Z,8.78
2023-02-14T12:52:49.391Z,8.84
2023-02-14T12:53:49.478Z,8.92
2023-02-14T12:54:49.428Z,8.81
2023-02-14T12:55:49.437Z,8.82
2023-02-14T12:56:49.461Z,8.92
2023-02-14T12:57:49.466Z,8.89
2023-02-14T12:58:49.478Z,8.93
2023-02-14T12:59:49.493Z,8.87
2023-02-14T13:00:49.507Z,8.89
2023-02-14T13:01:49.572Z,8.84
2023-02-14T13:02:49.559Z,8.93
2023-02-14T13:03:49.554Z,8.95
2023-02-14T13:04:49.569Z,8.93
2023-02-14T13:05:49.580Z,8.95
2023-02-14T13:06:49.607Z,8.92
2023-02-14T13:07:49.616Z,8.95
2023-02-14T13:08:49.624Z,8.95
2023-02-14T13:09:49.640Z,8.90
2023-02-14T13:10:49.658Z,8.90
2023-02-14T13:11:49.668Z,8.89
2023-02-14T13:12:49.682Z,8.93
2023-02-14T13:13:49.702Z,8.79
2023-02-14T13:14:49.713Z,8.79
2023-02-14T13:15:51.188Z,8.79
2023-02-14T13:16:49.750Z,8.84
2023-02-14T13:17:49.759Z,8.74
2023-02-14T13:18:49.771Z,8.77